Time;durP1;ratioP1;P1;durP2;ratioP2;P2;SDS_P1;SDS_P2;PMS_P1;PMS_P2;Temp;Humidity;BMP_temperature;BMP_pressure;BME280_temperature;BME280_humidity;BME280_pressure;Samples;Min_cycle;Max_cycle;Signal;HPM_P1;HPM_P2
2021/01/21 00:02:26;;;;;;;3.40;1.40;;;10.30;61.20;;;;;;2617083;52;20950;-67
2021/01/21 00:04:52;;;;;;;2.87;1.40;;;10.30;61.30;;;;;;2334601;54;20965;-66
2021/01/21 00:07:18;;;;;;;4.25;1.73;;;10.30;61.10;;;;;;2589086;52;21466;-67
2021/01/21 00:09:45;;;;;;;4.05;1.90;;;10.30;61.00;;;;;;2362297;53;21037;-66
2021/01/21 00:12:12;;;;;;;3.70;1.77;;;10.20;60.90;;;;;;2598999;52;20973;-67
2021/01/21 00:14:39;;;;;;;3.22;1.65;;;10.30;61.00;;;;;;2363181;53;20915;-67
2021/01/21 00:17:08;;;;;;;5.47;2.80;;;10.20;60.90;;;;;;2348790;53;20938;-67
2021/01/21 00:19:35;;;;;;;3.60;1.80;;;10.20;60.80;;;;;;2594201;52;21684;-68
2021/01/21 00:22:01;;;;;;;4.18;1.90;;;10.10;60.70;;;;;;2354171;53;20958;-67
2021/01/21 00:24:28;;;;;;;4.55;1.95;;;10.10;60.70;;;;;;2600667;52;20994;-67
2021/01/21 00:26:54;;;;;;;4.18;2.20;;;10.20;60.80;;;;;;2607927;52;21030;-67
2021/01/21 00:29:20;;;;;;;3.67;1.85;;;10.00;60.70;;;;;;2360379;53;21912;-66
2021/01/21 00:31:50;;;;;;;3.70;1.52;;;10.00;60.90;;;;;;2343243;53;21032;-67
2021/01/21 00:34:17;;;;;;;6.10;1.87;;;9.90;62.00;;;;;;2602414;52;20964;-67
2021/01/21 00:36:43;;;;;;;3.75;1.65;;;9.90;62.20;;;;;;2355798;53;21078;-66
2021/01/21 00:39:09;;;;;;;4.00;1.98;;;9.80;62.20;;;;;;2358754;53;21505;-67
2021/01/21 00:41:36;;;;;;;4.93;2.10;;;9.80;62.40;;;;;;2353539;53;20958;-67
2021/01/21 00:44:03;;;;;;;4.00;2.05;;;9.80;62.50;;;;;;2595664;52;20987;-67
2021/01/21 00:46:29;;;;;;;3.65;1.92;;;9.80;62.60;;;;;;2363482;54;21941;-67
2021/01/21 00:48:55;;;;;;;3.62;1.85;;;9.70;62.60;;;;;;2607212;52;20987;-67
2021/01/21 00:51:23;;;;;;;4.18;1.73;;;9.70;62.70;;;;;;2609962;52;20989;-67
2021/01/21 00:53:49;;;;;;;3.95;1.70;;;9.70;62.90;;;;;;2592025;52;20958;-67
2021/01/21 00:56:16;;;;;;;3.78;1.95;;;9.70;63.00;;;;;;2370845;54;20995;-67
2021/01/21 00:58:45;;;;;;;3.60;1.37;;;9.70;63.20;;;;;;2352429;53;21394;-67
2021/01/21 01:01:11;;;;;;;3.35;1.40;;;9.70;63.30;;;;;;2595282;52;20967;-68
2021/01/21 01:03:40;;;;;;;3.53;1.50;;;9.80;63.50;;;;;;2597164;52;21087;-67
2021/01/21 01:06:07;;;;;;;3.12;1.02;;;9.80;63.50;;;;;;2576650;52;20972;-67
2021/01/21 01:08:34;;;;;;;3.53;1.10;;;9.80;63.60;;;;;;2355653;53;21091;-67
2021/01/21 01:11:00;;;;;;;2.45;1.10;;;9.80;63.50;;;;;;2616493;52;21093;-67
2021/01/21 01:13:26;;;;;;;3.87;1.70;;;9.80;63.40;;;;;;2611522;52;20999;-67
2021/01/21 01:15:54;;;;;;;4.93;1.33;;;9.80;63.30;;;;;;2351760;54;20924;-67
2021/01/21 01:18:20;;;;;;;4.55;2.08;;;9.90;63.30;;;;;;2595140;52;21810;-67
2021/01/21 01:20:48;;;;;;;4.50;1.87;;;9.90;63.30;;;;;;2602559;52;20950;-67
2021/01/21 01:23:15;;;;;;;5.05;1.77;;;9.90;63.30;;;;;;2348031;53;20990;-67
2021/01/21 01:25:41;;;;;;;4.43;1.87;;;9.90;63.30;;;;;;2597610;52;20947;-67
2021/01/21 01:28:11;;;;;;;4.43;1.70;;;9.90;63.10;;;;;;2343287;54;21127;-67
2021/01/21 01:30:37;;;;;;;3.65;1.58;;;9.90;63.20;;;;;;2370311;53;21000;-67
2021/01/21 01:33:03;;;;;;;3.95;1.50;;;9.90;63.20;;;;;;2353885;54;21075;-67
2021/01/21 01:35:30;;;;;;;3.97;1.27;;;9.90;63.30;;;;;;2341224;54;20948;-67
2021/01/21 01:37:56;;;;;;;3.05;1.00;;;9.80;63.50;;;;;;2360412;53;20978;-67
2021/01/21 01:40:25;;;;;;;3.45;1.00;;;9.90;63.90;;;;;;2351460;53;20934;-67
2021/01/21 01:42:51;;;;;;;2.87;0.90;;;10.00;60.70;;;;;;2590680;52;20965;-67
2021/01/21 01:45:19;;;;;;;3.35;0.93;;;10.10;62.10;;;;;;2619640;52;20954;-67
2021/01/21 01:47:47;;;;;;;2.08;0.70;;;10.30;61.70;;;;;;2602029;52;21103;-67
2021/01/21 01:50:14;;;;;;;2.42;0.70;;;10.60;62.10;;;;;;2358068;54;20999;-67
2021/01/21 01:52:41;;;;;;;3.60;0.80;;;11.00;62.60;;;;;;2603573;52;21056;-67
2021/01/21 01:55:11;;;;;;;2.08;0.70;;;11.20;62.20;;;;;;2351102;53;21051;-67
2021/01/21 01:57:48;;;;;;;1.80;0.73;;;11.50;61.90;;;;;;2346596;53;21692;-67
2021/01/21 02:00:17;;;;;;;1.52;0.52;;;11.70;61.00;;;;;;2583630;52;20927;-66
2021/01/21 02:02:46;;;;;;;1.75;0.62;;;11.90;60.50;;;;;;2586769;52;20983;-68
2021/01/21 02:05:13;;;;;;;2.00;0.70;;;12.20;59.70;;;;;;2596828;52;20914;-68
2021/01/21 02:07:42;;;;;;;1.70;0.80;;;12.40;59.20;;;;;;2591078;52;20922;-67
2021/01/21 02:10:10;;;;;;;2.72;0.70;;;12.70;58.80;;;;;;2369914;53;20914;-67
2021/01/21 02:13:08;;;;;;;1.92;0.80;;;12.80;57.30;;;;;;2355274;53;20987;-67
2021/01/21 02:16:04;;;;;;;2.28;0.80;;;13.00;55.90;;;;;;2623017;52;20950;-67
2021/01/21 02:18:43;;;;;;;3.08;0.60;;;13.20;57.10;;;;;;2367647;54;21003;-67
2021/01/21 02:28:00;;;;;;;2.20;0.85;;;13.40;56.50;;;;;;2596636;52;20992;-68
2021/01/21 02:30:49;;;;;;;2.12;0.70;;;13.50;55.30;;;;;;2619701;52;20933;-67
2021/01/21 02:34:17;;;;;;;2.75;0.52;;;13.90;54.00;;;;;;2338353;53;20918;-67
2021/01/21 02:36:44;;;;;;;2.08;0.75;;;14.00;53.90;;;;;;2602541;52;21014;-67
2021/01/21 02:39:11;;;;;;;1.87;0.62;;;14.10;55.00;;;;;;2351919;53;21037;-66
2021/01/21 02:41:38;;;;;;;2.37;1.27;;;14.30;54.90;;;;;;2589641;52;20941;-67
2021/01/21 02:44:04;;;;;;;2.83;0.80;;;14.20;54.40;;;;;;2590595;52;20995;-68
2021/01/21 02:46:31;;;;;;;2.85;0.90;;;14.30;53.90;;;;;;2569017;52;21005;-68
2021/01/21 02:48:58;;;;;;;2.67;0.73;;;14.30;53.40;;;;;;2580198;53;20952;-67
2021/01/21 02:51:51;;;;;;;2.30;0.68;;;14.40;53.90;;;;;;2317530;54;20976;-68
2021/01/21 03:01:06;;;;;;;1.80;0.70;;;14.40;50.90;;;;;;2322487;53;21038;-68
2021/01/21 03:03:33;;;;;;;4.05;0.85;;;14.50;51.90;;;;;;2349632;53;20962;-68
2021/01/21 03:06:00;;;;;;;1.95;0.80;;;14.50;52.40;;;;;;2587217;53;20981;-68
2021/01/21 03:08:28;;;;;;;1.92;0.70;;;14.50;51.60;;;;;;2581937;53;20978;-68
2021/01/21 03:11:14;;;;;;;2.25;0.80;;;14.50;51.50;;;;;;2572275;53;20995;-68
2021/01/21 03:13:43;;;;;;;3.28;0.70;;;14.50;50.00;;;;;;2579407;52;20979;-68
2021/01/21 03:16:10;;;;;;;2.70;0.80;;;14.50;51.70;;;;;;2583912;52;20941;-68
2021/01/21 03:18:36;;;;;;;2.15;0.65;;;14.60;51.50;;;;;;2336518;54;21033;-68
2021/01/21 03:21:02;;;;;;;1.52;0.60;;;14.50;50.40;;;;;;2582574;52;20998;-68
2021/01/21 03:23:29;;;;;;;2.08;0.75;;;14.50;50.70;;;;;;2608389;52;20977;-68
2021/01/21 03:25:58;;;;;;;1.58;0.60;;;14.40;51.10;;;;;;2356381;54;20967;-68
2021/01/21 03:28:24;;;;;;;1.08;0.35;;;14.50;51.30;;;;;;2605458;52;20936;-67
2021/01/21 03:30:53;;;;;;;2.70;0.70;;;14.40;52.10;;;;;;2355935;53;21019;-67
2021/01/21 03:33:19;;;;;;;1.67;0.65;;;14.40;51.50;;;;;;2572940;52;20950;-67
2021/01/21 03:35:46;;;;;;;1.83;0.52;;;14.40;51.90;;;;;;2353563;53;20983;-67
2021/01/21 03:38:12;;;;;;;2.28;0.60;;;14.30;51.80;;;;;;2601350;52;20997;-67
2021/01/21 03:40:38;;;;;;;2.00;0.70;;;14.30;51.80;;;;;;2591342;52;21014;-66
2021/01/21 03:43:07;;;;;;;1.77;0.60;;;14.20;51.50;;;;;;2590465;52;20953;-68
2021/01/21 03:45:34;;;;;;;1.77;0.62;;;14.20;51.50;;;;;;2593598;52;20950;-69
2021/01/21 03:48:02;;;;;;;1.42;0.50;;;14.20;52.10;;;;;;2356613;54;20939;-68
2021/01/21 03:50:29;;;;;;;2.25;0.65;;;14.10;51.70;;;;;;2361056;53;21427;-68
2021/01/21 03:52:57;;;;;;;1.90;0.60;;;14.10;51.60;;;;;;2359391;53;21003;-68
2021/01/21 03:55:23;;;;;;;1.67;0.70;;;14.00;51.70;;;;;;2603758;52;21009;-68
2021/01/21 03:57:49;;;;;;;2.05;0.82;;;14.00;51.20;;;;;;2360042;53;21773;-69
2021/01/21 04:00:16;;;;;;;1.85;0.70;;;14.00;51.30;;;;;;2588809;52;20998;-68
2021/01/21 04:02:44;;;;;;;3.53;0.77;;;14.00;50.60;;;;;;2363919;53;21013;-68
2021/01/21 04:05:11;;;;;;;2.37;0.75;;;14.00;50.70;;;;;;2367014;54;20975;-68
2021/01/21 04:07:40;;;;;;;3.45;1.00;;;13.90;50.40;;;;;;2590699;52;20968;-68
2021/01/21 04:10:11;;;;;;;2.17;0.70;;;13.90;49.90;;;;;;2355480;53;21543;-68
2021/01/21 04:12:37;;;;;;;2.92;0.70;;;13.90;50.00;;;;;;2588548;52;20958;-68
2021/01/21 04:15:05;;;;;;;1.75;0.73;;;13.90;50.60;;;;;;2590027;52;21621;-68
2021/01/21 04:17:31;;;;;;;1.65;0.60;;;13.90;50.40;;;;;;2586782;52;21483;-68
2021/01/21 04:19:57;;;;;;;2.17;0.70;;;13.90;50.50;;;;;;2621667;52;20941;-68
2021/01/21 04:22:28;;;;;;;2.60;0.93;;;13.90;49.30;;;;;;2370487;54;20933;-68
2021/01/21 04:24:54;;;;;;;3.12;0.90;;;13.90;49.40;;;;;;2350174;54;20971;-68
2021/01/21 04:27:20;;;;;;;3.17;0.82;;;13.90;50.30;;;;;;2593517;52;20951;-68
2021/01/21 04:29:47;;;;;;;2.62;0.90;;;13.90;50.40;;;;;;2608376;52;20979;-69
2021/01/21 04:32:13;;;;;;;4.10;0.90;;;13.90;50.50;;;;;;2592952;52;20909;-68
2021/01/21 04:34:39;;;;;;;1.92;0.73;;;13.90;51.10;;;;;;2582606;52;20970;-68
2021/01/21 04:37:06;;;;;;;2.42;0.82;;;14.00;51.50;;;;;;2601120;52;20965;-66
2021/01/21 04:39:33;;;;;;;2.65;0.73;;;14.00;50.40;;;;;;2368424;53;20910;-68
2021/01/21 04:41:59;;;;;;;2.80;0.70;;;13.90;50.80;;;;;;2352404;54;20943;-67
2021/01/21 04:44:26;;;;;;;1.95;0.70;;;14.00;50.90;;;;;;2580215;52;20957;-68
2021/01/21 04:46:52;;;;;;;1.87;0.60;;;14.00;50.90;;;;;;2581994;53;21025;-68
2021/01/21 04:49:19;;;;;;;1.77;0.70;;;14.10;50.90;;;;;;2356528;53;22055;-68
2021/01/21 04:51:45;;;;;;;1.70;0.60;;;14.10;50.40;;;;;;2595085;52;20937;-68
2021/01/21 04:54:11;;;;;;;1.80;0.60;;;14.10;50.40;;;;;;2590448;52;20993;-68
2021/01/21 04:56:38;;;;;;;2.10;0.62;;;14.20;49.90;;;;;;2353260;53;20919;-68
2021/01/21 04:59:04;;;;;;;2.33;0.90;;;14.30;50.50;;;;;;2579868;52;21300;-68
2021/01/21 05:01:30;;;;;;;2.80;0.80;;;14.30;48.90;;;;;;2365475;53;20930;-68
2021/01/21 05:03:57;;;;;;;3.10;0.70;;;14.30;50.00;;;;;;2341855;53;20970;-68
2021/01/21 05:06:23;;;;;;;2.95;0.70;;;14.40;49.70;;;;;;2598691;52;21105;-68
2021/01/21 05:08:53;;;;;;;2.58;1.02;;;14.40;48.50;;;;;;2583208;52;20968;-68
2021/01/21 05:11:21;;;;;;;2.42;0.80;;;14.40;47.80;;;;;;2565597;52;20921;-68
2021/01/21 05:13:48;;;;;;;1.85;0.57;;;14.40;49.00;;;;;;2337550;53;21050;-67
2021/01/21 05:16:14;;;;;;;2.35;0.98;;;14.50;49.00;;;;;;2604442;52;20946;-68
2021/01/21 05:18:40;;;;;;;2.30;0.70;;;14.50;48.40;;;;;;2358853;53;20978;-67
2021/01/21 05:21:07;;;;;;;1.98;0.60;;;14.50;47.80;;;;;;2361778;53;21038;-68
2021/01/21 05:23:34;;;;;;;3.58;0.70;;;14.60;47.70;;;;;;2599487;52;20922;-68
2021/01/21 05:26:00;;;;;;;3.03;1.00;;;14.60;47.90;;;;;;2618750;52;20998;-68
2021/01/21 05:28:28;;;;;;;2.87;0.75;;;14.60;46.50;;;;;;2349561;54;20963;-68
2021/01/21 05:30:57;;;;;;;1.58;0.60;;;14.60;46.50;;;;;;2360548;54;20972;-68
2021/01/21 05:33:24;;;;;;;2.25;0.85;;;14.60;46.80;;;;;;2587085;52;20951;-68
2021/01/21 05:35:51;;;;;;;2.40;0.88;;;14.60;47.40;;;;;;2598185;52;21034;-68
2021/01/21 05:38:17;;;;;;;2.35;0.70;;;14.60;47.10;;;;;;2589030;52;21045;-67
2021/01/21 05:40:46;;;;;;;3.55;0.90;;;14.70;46.50;;;;;;2573329;52;20978;-68
2021/01/21 05:43:14;;;;;;;1.98;0.80;;;14.60;46.30;;;;;;2351883;53;20927;-68
2021/01/21 05:45:44;;;;;;;1.98;0.60;;;14.60;47.30;;;;;;2580388;53;21474;-68
2021/01/21 05:48:12;;;;;;;2.10;0.90;;;14.60;47.30;;;;;;2579595;52;20952;-68
2021/01/21 05:50:48;;;;;;;1.85;0.73;;;14.60;47.50;;;;;;2582667;52;21041;-67
2021/01/21 05:53:17;;;;;;;2.47;0.80;;;14.60;46.30;;;;;;2597587;52;21038;-68
2021/01/21 05:55:48;;;;;;;2.30;0.82;;;14.60;46.50;;;;;;2599298;52;20998;-68
2021/01/21 05:58:17;;;;;;;3.22;0.90;;;14.60;47.50;;;;;;2595529;52;21067;-68
2021/01/21 06:00:44;;;;;;;1.65;0.60;;;14.60;47.20;;;;;;2577378;52;21020;-68
2021/01/21 06:03:13;;;;;;;1.73;0.65;;;14.60;47.30;;;;;;2361515;53;20918;-68
2021/01/21 06:05:40;;;;;;;2.83;0.98;;;14.60;46.40;;;;;;2623979;52;21017;-68
2021/01/21 06:08:06;;;;;;;1.85;0.60;;;14.60;47.40;;;;;;2623495;52;21311;-68
2021/01/21 06:10:34;;;;;;;2.20;0.70;;;14.60;47.20;;;;;;2369794;54;21106;-67
2021/01/21 06:13:04;;;;;;;2.80;0.98;;;14.60;47.10;;;;;;2351257;53;21077;-68
2021/01/21 06:15:31;;;;;;;4.72;1.08;;;14.60;46.40;;;;;;2593596;52;20874;-68
2021/01/21 06:17:58;;;;;;;2.78;1.00;;;14.70;47.20;;;;;;2592369;52;20966;-68
2021/01/21 06:20:24;;;;;;;1.77;0.73;;;14.70;47.20;;;;;;2354308;53;20925;-67
2021/01/21 06:22:51;;;;;;;1.85;0.60;;;14.70;46.90;;;;;;2592111;52;22443;-68
2021/01/21 06:25:20;;;;;;;2.90;0.80;;;14.70;47.40;;;;;;2356560;53;20941;-68
2021/01/21 06:27:46;;;;;;;1.30;0.55;;;14.70;47.50;;;;;;2320478;53;20954;-68
2021/01/21 06:30:19;;;;;;;2.45;0.80;;;14.70;47.80;;;;;;2583246;52;21255;-68
2021/01/21 06:32:56;;;;;;;2.28;0.70;;;14.70;47.20;;;;;;2570162;53;20971;-68
2021/01/21 06:35:22;;;;;;;1.83;0.50;;;14.70;46.90;;;;;;2582766;52;21439;-68
2021/01/21 06:37:52;;;;;;;1.65;0.62;;;14.70;47.30;;;;;;2605724;52;21463;-67
2021/01/21 06:40:21;;;;;;;1.35;0.60;;;14.60;47.60;;;;;;2550611;52;1364962;-68
2021/01/21 06:43:10;;;;;;;2.37;0.65;;;14.70;48.60;;;;;;2596904;52;21018;-68
2021/01/21 06:45:38;;;;;;;1.37;0.50;;;14.60;48.00;;;;;;2586644;52;20983;-68
2021/01/21 06:48:05;;;;;;;2.25;0.60;;;14.60;47.90;;;;;;2339118;53;21049;-67
2021/01/21 06:50:31;;;;;;;4.15;0.77;;;14.60;47.10;;;;;;2602592;52;21853;-67
2021/01/21 06:52:59;;;;;;;0.93;0.43;;;14.60;47.40;;;;;;2582047;52;21033;-68
2021/01/21 06:55:25;;;;;;;1.90;0.62;;;14.60;47.70;;;;;;2343922;53;21045;-67
2021/01/21 06:57:52;;;;;;;2.70;0.70;;;14.60;48.00;;;;;;2619362;52;21796;-67
2021/01/21 07:00:40;;;;;;;1.37;0.50;;;14.60;48.30;;;;;;2349323;53;21020;-67
2021/01/21 07:03:07;;;;;;;1.23;0.52;;;14.60;47.60;;;;;;2581358;52;20963;-67
2021/01/21 07:05:34;;;;;;;3.00;0.60;;;14.60;47.20;;;;;;2598466;52;20966;-67
2021/01/21 07:08:02;;;;;;;2.22;0.50;;;14.60;47.80;;;;;;2594382;52;21315;-67
2021/01/21 07:10:48;;;;;;;2.00;0.60;;;14.60;48.50;;;;;;2595140;52;21395;-68
2021/01/21 07:13:16;;;;;;;1.25;0.47;;;14.60;48.50;;;;;;2618995;52;21950;-68
2021/01/21 07:15:44;;;;;;;1.25;0.45;;;14.60;48.90;;;;;;2362618;53;20907;-68
2021/01/21 07:18:12;;;;;;;1.37;0.40;;;14.60;48.60;;;;;;2356602;54;20933;-67
2021/01/21 07:21:06;;;;;;;1.45;0.60;;;14.60;49.00;;;;;;2352435;53;21021;-68
2021/01/21 07:24:03;;;;;;;1.40;0.50;;;14.60;48.40;;;;;;2597119;52;21015;-68
2021/01/21 07:26:42;;;;;;;1.15;0.40;;;14.60;48.60;;;;;;2574950;52;20950;-68
2021/01/21 07:29:10;;;;;;;1.30;0.40;;;14.60;48.10;;;;;;2584672;52;21006;-69
2021/01/21 07:35:33;;;;;;;0.93;0.50;;;14.40;48.30;;;;;;2591373;52;21686;-68
2021/01/21 07:38:00;;;;;;;1.62;0.82;;;14.50;48.70;;;;;;2593138;52;21853;-67
2021/01/21 07:40:49;;;;;;;2.05;0.80;;;14.50;50.30;;;;;;2599114;52;20935;-68
2021/01/21 07:43:16;;;;;;;1.77;0.50;;;14.60;49.60;;;;;;2586414;52;21030;-68
2021/01/21 07:45:52;;;;;;;1.80;0.60;;;14.50;50.60;;;;;;2598460;52;20990;-68
2021/01/21 07:48:23;;;;;;;1.37;0.50;;;14.50;50.70;;;;;;2594431;52;20965;-68
2021/01/21 07:50:52;;;;;;;1.10;0.40;;;14.60;51.10;;;;;;2597743;52;21495;-68
2021/01/21 07:53:27;;;;;;;1.70;0.70;;;14.60;51.60;;;;;;2342254;55;20921;-68
2021/01/21 07:55:55;;;;;;;2.25;0.90;;;14.60;51.20;;;;;;2584335;53;20951;-68
2021/01/21 07:58:30;;;;;;;1.87;0.70;;;14.60;51.50;;;;;;2343431;53;21043;-68
2021/01/21 08:01:01;;;;;;;1.80;0.60;;;14.70;51.70;;;;;;2579030;53;20963;-68
2021/01/21 08:04:52;;;;;;;2.28;0.60;;;14.70;51.30;;;;;;2581439;53;21098;-68
2021/01/21 08:07:19;;;;;;;1.10;0.50;;;14.70;51.20;;;;;;2564360;53;20983;-68
2021/01/21 08:10:04;;;;;;;1.52;0.52;;;14.70;50.60;;;;;;2579094;53;20941;-68
2021/01/21 08:12:30;;;;;;;2.65;0.50;;;14.80;51.50;;;;;;2343380;54;20936;-68
2021/01/21 08:14:57;;;;;;;1.58;0.70;;;14.80;51.20;;;;;;2347611;54;21001;-68
2021/01/21 08:17:23;;;;;;;0.75;0.30;;;14.80;50.70;;;;;;2608226;52;22424;-68
2021/01/21 08:19:49;;;;;;;1.10;0.50;;;14.80;51.30;;;;;;2354385;54;20935;-68
2021/01/21 08:22:15;;;;;;;1.60;0.50;;;14.80;51.10;;;;;;2586987;52;21079;-68
2021/01/21 08:24:58;;;;;;;1.48;0.52;;;14.90;51.50;;;;;;2588212;52;21004;-68
2021/01/21 08:27:42;;;;;;;0.95;0.40;;;14.90;50.20;;;;;;2611444;52;21865;-68
2021/01/21 08:30:27;;;;;;;0.82;0.40;;;15.00;50.40;;;;;;2597012;52;21039;-68
2021/01/21 08:33:39;;;;;;;1.52;0.60;;;15.00;49.90;;;;;;2326728;54;21014;-67
2021/01/21 08:36:06;;;;;;;3.22;1.00;;;15.10;50.20;;;;;;2589776;52;20920;-67
2021/01/21 08:38:40;;;;;;;1.83;0.60;;;15.10;49.90;;;;;;2613194;52;20966;-68
2021/01/21 08:41:07;;;;;;;1.80;0.60;;;15.10;49.60;;;;;;2579671;52;21048;-68
2021/01/21 08:43:37;;;;;;;0.93;0.30;;;15.10;49.90;;;;;;2593659;52;21023;-68
2021/01/21 08:46:19;;;;;;;2.05;0.50;;;15.20;50.40;;;;;;2355272;54;21081;-68
2021/01/21 08:48:46;;;;;;;1.15;0.40;;;15.20;49.80;;;;;;2579242;52;21503;-68
2021/01/21 08:53:08;;;;;;;0.95;0.47;;;15.20;49.60;;;;;;2327048;53;21052;-68
2021/01/21 08:55:45;;;;;;;1.30;0.50;;;15.30;49.10;;;;;;2360673;53;21019;-68
2021/01/21 08:58:16;;;;;;;1.95;0.50;;;15.30;49.40;;;;;;2592348;52;20983;-68
2021/01/21 09:01:06;;;;;;;1.92;0.65;;;15.40;49.60;;;;;;2564677;53;21429;-68
2021/01/21 09:03:45;;;;;;;2.30;1.08;;;15.30;49.10;;;;;;2608176;52;21885;-67
2021/01/21 09:06:12;;;;;;;2.55;1.10;;;15.30;49.80;;;;;;2599426;52;21014;-68
2021/01/21 09:08:57;;;;;;;1.65;0.50;;;15.40;49.80;;;;;;2370388;54;20918;-68
2021/01/21 09:11:38;;;;;;;1.17;0.50;;;15.40;50.00;;;;;;2585210;52;21607;-68
2021/01/21 09:14:06;;;;;;;1.48;0.65;;;15.40;50.00;;;;;;2560901;53;20957;-68
2021/01/21 09:16:51;;;;;;;4.12;1.00;;;15.50;50.90;;;;;;2354549;53;21717;-68
2021/01/21 09:20:43;;;;;;;2.00;0.80;;;15.50;49.80;;;;;;2357664;54;20967;-68
2021/01/21 09:23:22;;;;;;;2.40;0.90;;;15.50;49.70;;;;;;2352352;54;20959;-68
2021/01/21 09:25:48;;;;;;;2.50;0.90;;;15.60;49.80;;;;;;2344625;54;21024;-68
2021/01/21 09:28:15;;;;;;;1.70;0.62;;;15.60;49.70;;;;;;2556377;53;21683;-68
2021/01/21 09:30:42;;;;;;;2.03;0.80;;;15.60;50.50;;;;;;2587154;52;21569;-68
2021/01/21 09:33:12;;;;;;;2.80;1.02;;;15.60;50.00;;;;;;2590470;52;21043;-68
2021/01/21 09:35:40;;;;;;;1.90;0.70;;;15.60;49.30;;;;;;2616254;52;21650;-68
2021/01/21 09:38:07;;;;;;;1.77;0.70;;;15.60;50.00;;;;;;2621015;52;20946;-68
2021/01/21 09:40:34;;;;;;;2.03;0.70;;;15.60;49.90;;;;;;2361516;54;21010;-68
2021/01/21 09:43:03;;;;;;;1.95;0.75;;;15.60;49.90;;;;;;2588221;52;20945;-68
2021/01/21 09:45:31;;;;;;;2.65;0.60;;;15.60;49.80;;;;;;2332722;54;21043;-68
2021/01/21 09:47:57;;;;;;;1.98;0.90;;;15.60;50.10;;;;;;2588930;52;21050;-68
2021/01/21 09:50:24;;;;;;;1.95;0.80;;;15.50;50.10;;;;;;2341361;53;21547;-68
2021/01/21 09:52:51;;;;;;;2.28;0.80;;;15.50;49.30;;;;;;2313301;54;20976;-68
2021/01/21 09:55:17;;;;;;;1.55;0.60;;;15.50;50.40;;;;;;2590846;52;21554;-68
2021/01/21 09:57:45;;;;;;;1.45;0.60;;;15.60;49.70;;;;;;2603461;52;21470;-68
2021/01/21 10:00:12;;;;;;;1.20;0.50;;;15.50;49.80;;;;;;2361117;53;20942;-68
2021/01/21 10:02:41;;;;;;;1.23;0.47;;;15.50;50.40;;;;;;2590731;52;21013;-68
2021/01/21 10:05:07;;;;;;;1.67;0.50;;;15.50;50.70;;;;;;2334090;53;21060;-68
2021/01/21 10:07:34;;;;;;;1.73;0.50;;;15.50;51.20;;;;;;2621739;52;21069;-68
2021/01/21 10:10:00;;;;;;;0.77;0.40;;;15.60;50.60;;;;;;2617602;52;20952;-68
2021/01/21 10:12:29;;;;;;;2.30;0.40;;;15.60;51.30;;;;;;2588903;52;20942;-68
2021/01/21 10:14:56;;;;;;;1.80;0.70;;;15.60;50.70;;;;;;2587127;52;21414;-68
2021/01/21 10:17:27;;;;;;;1.73;0.52;;;15.70;50.70;;;;;;2355738;54;20942;-68
2021/01/21 10:19:53;;;;;;;1.48;0.60;;;15.60;50.80;;;;;;2342012;53;20993;-68
2021/01/21 10:22:20;;;;;;;2.05;0.60;;;15.70;51.20;;;;;;2561419;52;21051;-68
2021/01/21 10:24:46;;;;;;;2.95;0.80;;;15.60;50.70;;;;;;2589951;52;20953;-68
2021/01/21 10:27:13;;;;;;;1.30;0.50;;;15.60;51.50;;;;;;2589521;52;20933;-68
2021/01/21 10:29:39;;;;;;;1.98;0.70;;;15.70;51.60;;;;;;2369850;53;20974;-68
2021/01/21 10:32:06;;;;;;;1.67;0.50;;;15.60;50.50;;;;;;2620591;52;21017;-68
2021/01/21 10:34:32;;;;;;;1.45;0.50;;;15.60;51.30;;;;;;2617068;52;21494;-68
2021/01/21 10:36:59;;;;;;;2.17;0.50;;;15.80;51.40;;;;;;2591545;52;20950;-68
2021/01/21 10:39:25;;;;;;;0.82;0.40;;;15.70;51.20;;;;;;2595151;52;20923;-68
2021/01/21 10:41:52;;;;;;;1.70;0.60;;;15.60;51.20;;;;;;2590330;52;20955;-68
2021/01/21 10:44:18;;;;;;;1.85;0.50;;;15.70;51.90;;;;;;2581149;52;20916;-69
2021/01/21 10:46:45;;;;;;;1.00;0.47;;;15.70;52.00;;;;;;2608209;52;20938;-68
2021/01/21 10:49:14;;;;;;;1.45;0.60;;;15.70;52.20;;;;;;2357049;54;20954;-68
2021/01/21 10:51:40;;;;;;;1.08;0.57;;;15.70;52.40;;;;;;2578363;52;20960;-68
2021/01/21 10:54:07;;;;;;;1.95;0.65;;;15.70;52.50;;;;;;2561862;53;20964;-68
2021/01/21 10:56:33;;;;;;;3.58;0.45;;;15.70;52.70;;;;;;2333134;53;21862;-67
2021/01/21 10:59:01;;;;;;;1.37;0.50;;;15.80;53.00;;;;;;2568368;53;20967;-67
2021/01/21 11:01:30;;;;;;;1.37;0.57;;;15.70;53.40;;;;;;2537168;54;21069;-67
2021/01/21 11:03:56;;;;;;;1.87;0.60;;;15.80;53.20;;;;;;2580253;53;21069;-67
2021/01/21 11:06:22;;;;;;;1.77;0.50;;;15.80;53.60;;;;;;2335273;54;21027;-67
2021/01/21 11:08:49;;;;;;;1.62;0.60;;;15.90;53.20;;;;;;2340105;53;21713;-67
2021/01/21 11:11:16;;;;;;;1.35;0.55;;;15.90;53.30;;;;;;2597107;52;20943;-66
2021/01/21 11:13:42;;;;;;;1.80;0.60;;;16.00;52.80;;;;;;2350920;53;21045;-68
2021/01/21 11:16:10;;;;;;;1.90;0.60;;;16.00;53.20;;;;;;2343135;53;20991;-67
2021/01/21 11:18:36;;;;;;;3.95;0.73;;;16.00;53.70;;;;;;2586977;52;21758;-67
2021/01/21 11:21:03;;;;;;;1.75;0.70;;;16.10;53.70;;;;;;2349633;54;21001;-68
2021/01/21 11:23:29;;;;;;;2.60;0.80;;;16.10;53.20;;;;;;2602416;52;20946;-67
2021/01/21 11:26:01;;;;;;;1.87;0.77;;;16.20;53.60;;;;;;2588533;52;21019;-68
2021/01/21 11:28:28;;;;;;;1.80;0.60;;;16.20;53.30;;;;;;2596046;52;20946;-67
2021/01/21 11:30:54;;;;;;;1.05;0.60;;;16.30;53.60;;;;;;2347747;54;20918;-67
2021/01/21 11:33:22;;;;;;;2.35;0.90;;;16.30;53.80;;;;;;2621689;52;21518;-64
2021/01/21 11:35:54;;;;;;;1.90;0.70;;;16.30;53.90;;;;;;2370798;53;21478;-66
2021/01/21 11:38:20;;;;;;;2.58;0.70;;;16.30;53.50;;;;;;2588457;52;21026;-69
2021/01/21 11:40:46;;;;;;;2.45;0.50;;;16.30;53.50;;;;;;2613802;52;20939;-68
2021/01/21 11:43:13;;;;;;;2.03;0.60;;;16.40;53.50;;;;;;2569218;53;20917;-67
2021/01/21 11:45:39;;;;;;;1.33;0.50;;;16.40;53.50;;;;;;2617476;52;21450;-67
2021/01/21 11:48:06;;;;;;;2.35;0.77;;;16.50;53.10;;;;;;2583736;52;21750;-65
2021/01/21 11:50:33;;;;;;;1.98;0.65;;;16.40;52.70;;;;;;2588490;52;20967;-68
2021/01/21 11:53:00;;;;;;;4.22;0.62;;;16.50;53.10;;;;;;2580559;52;20963;-68
2021/01/21 11:55:28;;;;;;;2.08;0.85;;;16.50;53.70;;;;;;2556473;53;21027;-68
2021/01/21 11:57:54;;;;;;;1.75;0.52;;;16.50;53.20;;;;;;2546925;52;20996;-66
2021/01/21 12:00:21;;;;;;;1.48;0.57;;;16.50;53.30;;;;;;2588750;52;21049;-68
2021/01/21 12:02:47;;;;;;;2.35;0.77;;;16.50;53.50;;;;;;2584780;52;21014;-67
2021/01/21 12:05:14;;;;;;;2.00;0.70;;;16.50;53.60;;;;;;2354004;53;20992;-65
2021/01/21 12:07:41;;;;;;;2.58;0.70;;;16.60;53.80;;;;;;2592191;52;21554;-66
2021/01/21 12:10:08;;;;;;;2.15;0.77;;;16.60;53.60;;;;;;2367852;53;20965;-67
2021/01/21 12:12:34;;;;;;;3.05;0.80;;;16.70;54.00;;;;;;2588955;52;20928;-68
2021/01/21 12:15:01;;;;;;;1.98;0.70;;;16.70;53.10;;;;;;2619408;52;21073;-67
2021/01/21 12:17:28;;;;;;;2.17;0.80;;;16.70;53.50;;;;;;2599020;52;20969;-68
2021/01/21 12:19:54;;;;;;;2.72;0.80;;;16.80;54.00;;;;;;2565572;53;21513;-67
2021/01/21 12:22:26;;;;;;;2.50;0.80;;;16.80;53.30;;;;;;2343480;53;20986;-68
2021/01/21 12:24:52;;;;;;;2.03;0.90;;;16.80;52.20;;;;;;2589313;52;20912;-68
2021/01/21 12:27:19;;;;;;;2.65;0.73;;;16.70;52.20;;;;;;2594137;52;21022;-68
2021/01/21 12:29:53;;;;;;;2.37;0.75;;;16.70;52.20;;;;;;2607061;52;20988;-68
2021/01/21 12:32:21;;;;;;;1.45;0.55;;;16.70;52.40;;;;;;2588731;52;21005;-68
2021/01/21 12:34:50;;;;;;;2.30;0.93;;;16.70;52.70;;;;;;2548064;53;21024;-68
2021/01/21 12:37:16;;;;;;;2.37;0.70;;;16.60;52.60;;;;;;2354586;53;21003;-68
2021/01/21 12:39:42;;;;;;;1.90;0.82;;;16.60;52.50;;;;;;2607766;52;20990;-68
2021/01/21 12:42:09;;;;;;;3.00;0.90;;;16.50;52.50;;;;;;2340439;54;20996;-68
2021/01/21 12:44:35;;;;;;;2.72;0.90;;;16.50;52.30;;;;;;2322624;54;21439;-68
2021/01/21 12:47:02;;;;;;;3.62;1.25;;;16.50;52.30;;;;;;2541706;53;21073;-68
2021/01/21 12:49:28;;;;;;;2.33;0.80;;;16.40;52.70;;;;;;2552223;52;20995;-68
2021/01/21 12:51:55;;;;;;;1.95;0.80;;;16.40;52.70;;;;;;2609592;52;21813;-68
2021/01/21 12:54:21;;;;;;;2.72;0.73;;;16.30;52.00;;;;;;2593818;52;20940;-67
2021/01/21 12:56:48;;;;;;;2.40;0.77;;;16.10;52.30;;;;;;2589136;52;20944;-68
2021/01/21 12:59:14;;;;;;;2.08;0.70;;;16.20;53.00;;;;;;2586494;52;21792;-67
2021/01/21 13:01:41;;;;;;;2.25;0.77;;;16.20;53.40;;;;;;2356541;54;20958;-68
2021/01/21 13:04:07;;;;;;;3.50;0.75;;;16.10;53.50;;;;;;2327924;54;21438;-68
2021/01/21 13:06:33;;;;;;;1.67;0.68;;;16.10;53.50;;;;;;2613948;52;20914;-68
2021/01/21 13:09:00;;;;;;;1.90;0.80;;;16.10;54.20;;;;;;2622317;52;20933;-68
2021/01/21 13:11:26;;;;;;;2.78;0.90;;;16.10;54.30;;;;;;2593668;52;20968;-68
2021/01/21 13:13:52;;;;;;;3.50;1.00;;;16.10;54.10;;;;;;2354422;54;20987;-68
2021/01/21 13:16:20;;;;;;;2.80;0.80;;;16.10;53.80;;;;;;2568517;53;21039;-68
2021/01/21 13:18:46;;;;;;;2.45;0.90;;;16.00;54.30;;;;;;2551078;53;20926;-68
2021/01/21 13:21:13;;;;;;;1.92;0.77;;;16.00;53.80;;;;;;2590896;52;21546;-68